createdAt,value
2023-04-15T00:00:00.953Z,5.99
2023-04-15T00:01:00.974Z,5.94
2023-04-15T00:02:01.060Z,5.91
2023-04-15T00:03:01.031Z,5.91
2023-04-15T00:04:00.980Z,5.91
2023-04-15T00:05:00.934Z,5.91
2023-04-15T00:06:00.879Z,5.93
2023-04-15T00:07:00.870Z,5.91
2023-04-15T00:08:00.881Z,5.93
2023-04-15T00:09:01.356Z,5.94
2023-04-15T00:10:00.860Z,5.94
2023-04-15T00:11:00.861Z,5.97
2023-04-15T00:12:00.848Z,5.98
2023-04-15T00:13:00.845Z,5.97
2023-04-15T00:14:00.813Z,5.97
2023-04-15T00:15:00.818Z,5.97
2023-04-15T00:16:00.797Z,5.98
2023-04-15T00:17:00.881Z,5.97
2023-04-15T00:18:00.800Z,5.94
2023-04-15T00:19:00.992Z,5.93
2023-04-15T00:20:00.731Z,5.93
2023-04-15T00:21:00.743Z,5.91
2023-04-15T00:22:00.761Z,5.93
2023-04-15T00:23:00.726Z,5.94
2023-04-15T00:24:00.738Z,5.94
2023-04-15T00:25:00.720Z,5.93
2023-04-15T00:26:00.699Z,5.97
2023-04-15T00:27:00.702Z,5.94
2023-04-15T00:28:00.666Z,5.94
2023-04-15T00:29:00.862Z,5.93
2023-04-15T00:30:00.637Z,5.94
2023-04-15T00:31:00.672Z,5.93
2023-04-15T00:32:00.624Z,5.94
2023-04-15T00:33:00.682Z,5.91
2023-04-15T00:34:00.610Z,5.93
2023-04-15T00:35:00.589Z,5.90
2023-04-15T00:36:00.601Z,5.87
2023-04-15T00:37:00.598Z,5.87
2023-04-15T00:38:00.618Z,5.86
2023-04-15T00:39:00.851Z,5.86
2023-04-15T00:40:00.574Z,5.84
2023-04-15T00:41:00.562Z,5.84
2023-04-15T00:42:00.536Z,5.83
2023-04-15T00:43:00.533Z,5.83
2023-04-15T00:44:00.536Z,5.83
2023-04-15T00:45:00.525Z,5.84
2023-04-15T00:46:00.569Z,5.84
2023-04-15T00:47:00.467Z,5.83
2023-04-15T00:48:00.606Z,5.84
2023-04-15T00:49:00.702Z,5.83
2023-04-15T00:50:00.495Z,5.83
2023-04-15T00:51:00.437Z,5.82
2023-04-15T00:52:00.435Z,5.79
2023-04-15T00:53:00.461Z,5.80
2023-04-15T00:54:00.427Z,5.79
2023-04-15T00:55:00.445Z,5.79
2023-04-15T00:56:00.390Z,5.75
2023-04-15T00:57:00.385Z,5.76
2023-04-15T00:58:00.372Z,5.75
2023-04-15T00:59:00.594Z,5.76
2023-04-15T01:00:00.414Z,5.76
2023-04-15T01:01:00.426Z,5.79
2023-04-15T01:02:00.476Z,5.80
2023-04-15T01:03:00.691Z,5.80
2023-04-15T01:04:00.513Z,5.80
2023-04-15T01:05:00.308Z,5.80
2023-04-15T01:06:02.113Z,5.79
2023-04-15T01:07:00.322Z,5.79
2023-04-15T01:08:00.257Z,5.75
2023-04-15T01:09:00.513Z,5.75
2023-04-15T01:11:27.808Z,5.73
2023-04-15T01:11:33.177Z,5.72
2023-04-15T01:12:33.214Z,5.72
2023-04-15T01:13:33.138Z,5.69
2023-04-15T01:14:33.123Z,5.68
2023-04-15T01:15:33.104Z,5.68
2023-04-15T01:16:33.119Z,5.69
2023-04-15T01:17:33.113Z,5.69
2023-04-15T01:18:33.094Z,5.69
2023-04-15T01:19:33.068Z,5.69
2023-04-15T01:20:33.064Z,5.68
2023-04-15T01:21:33.055Z,5.69
2023-04-15T01:22:33.039Z,5.69
2023-04-15T01:23:33.075Z,5.68
2023-04-15T01:24:33.036Z,5.69
2023-04-15T01:25:33.036Z,5.69
2023-04-15T01:26:33.006Z,5.68
2023-04-15T01:27:33.012Z,5.68
2023-04-15T01:28:33.030Z,5.68
2023-04-15T01:29:32.983Z,5.68
2023-04-15T01:30:32.988Z,5.68
2023-04-15T01:31:32.993Z,5.66
2023-04-15T01:32:32.995Z,5.64
2023-04-15T01:33:32.951Z,5.64
2023-04-15T01:34:35.522Z,5.61
2023-04-15T01:35:32.939Z,5.62
2023-04-15T01:36:32.902Z,5.61
2023-04-15T01:37:32.879Z,5.61
2023-04-15T01:38:32.886Z,5.59
2023-04-15T01:39:32.946Z,5.61
2023-04-15T01:40:32.875Z,5.59
2023-04-15T01:41:32.869Z,5.59
2023-04-15T01:42:32.869Z,5.56
2023-04-15T01:43:32.850Z,5.54
2023-04-15T01:44:32.871Z,5.54
2023-04-15T01:45:32.835Z,5.51
2023-04-15T01:46:32.836Z,5.50
2023-04-15T01:47:32.801Z,5.48
2023-04-15T01:48:32.789Z,5.47
2023-04-15T01:49:32.767Z,5.47
2023-04-15T01:50:32.794Z,5.46
2023-04-15T01:51:32.765Z,5.46
2023-04-15T01:52:32.749Z,5.44
2023-04-15T01:53:32.726Z,5.44
2023-04-15T01:54:32.729Z,5.41
2023-04-15T01:55:32.731Z,5.39
2023-04-15T01:56:32.762Z,5.38
2023-04-15T01:57:32.719Z,5.38
2023-04-15T01:58:32.710Z,5.36
2023-04-15T01:59:32.675Z,5.38
2023-04-15T02:00:32.739Z,5.35
2023-04-15T02:01:32.698Z,5.38
2023-04-15T02:02:32.740Z,5.36
2023-04-15T02:03:32.746Z,5.35
2023-04-15T02:04:32.636Z,5.33
2023-04-15T02:05:32.625Z,5.35
2023-04-15T02:06:32.635Z,5.35
2023-04-15T02:07:32.612Z,5.33
2023-04-15T02:08:32.639Z,5.33
2023-04-15T02:09:32.596Z,5.33
2023-04-15T02:10:32.600Z,5.33
2023-04-15T02:11:32.559Z,5.33
2023-04-15T02:12:32.554Z,5.35
2023-04-15T02:13:32.576Z,5.36
2023-04-15T02:14:32.553Z,5.36
2023-04-15T02:15:32.508Z,5.38
2023-04-15T02:16:32.555Z,5.39
2023-04-15T02:17:32.521Z,5.43
2023-04-15T02:18:32.492Z,5.44
2023-04-15T02:19:32.508Z,5.44
2023-04-15T02:20:32.515Z,5.46
2023-04-15T02:21:32.456Z,5.47
2023-04-15T02:22:32.466Z,5.46
2023-04-15T02:23:32.466Z,5.47
2023-04-15T02:24:32.453Z,5.47
2023-04-15T02:25:32.427Z,5.47
2023-04-15T02:26:32.446Z,5.48
2023-04-15T02:27:32.393Z,5.48
2023-04-15T02:28:32.387Z,5.48
2023-04-15T02:29:32.395Z,5.50
2023-04-15T02:30:32.394Z,5.50
2023-04-15T02:31:32.410Z,5.50
2023-04-15T02:32:32.374Z,5.50
2023-04-15T02:33:32.368Z,5.51
2023-04-15T02:34:32.343Z,5.51
2023-04-15T02:35:32.328Z,5.51
2023-04-15T02:36:32.316Z,5.51
2023-04-15T02:37:32.294Z,5.51
2023-04-15T02:38:32.291Z,5.51
2023-04-15T02:39:32.266Z,5.50
2023-04-15T02:40:32.299Z,5.48
2023-04-15T02:41:32.268Z,5.48
2023-04-15T02:42:32.246Z,5.48
2023-04-15T02:43:32.236Z,5.47
2023-04-15T02:44:32.250Z,5.48
2023-04-15T02:45:32.231Z,5.48
2023-04-15T02:46:32.332Z,5.48
2023-04-15T02:47:32.205Z,5.47
2023-04-15T02:48:32.198Z,5.48
2023-04-15T02:49:32.193Z,5.47
2023-04-15T02:50:32.181Z,5.48
2023-04-15T02:51:32.172Z,5.47
2023-04-15T02:52:32.160Z,5.47
2023-04-15T02:53:32.139Z,5.47
2023-04-15T02:54:32.130Z,5.47
2023-04-15T02:55:32.106Z,5.44
2023-04-15T02:56:32.112Z,5.39
2023-04-15T02:57:32.131Z,5.35
2023-04-15T02:58:32.095Z,5.33
2023-04-15T02:59:32.094Z,5.30
2023-04-15T03:00:32.072Z,5.26
2023-04-15T03:01:32.095Z,5.23
2023-04-15T03:02:32.144Z,5.20
2023-04-15T03:03:32.153Z,5.15
2023-04-15T03:04:32.031Z,5.14
2023-04-15T03:05:32.017Z,5.11
2023-04-15T03:06:31.998Z,5.11
2023-04-15T03:07:32.019Z,5.11
2023-04-15T03:08:31.986Z,5.15
2023-04-15T03:09:31.991Z,5.15
2023-04-15T03:10:31.981Z,5.18
2023-04-15T03:11:31.951Z,5.18
2023-04-15T03:12:31.955Z,5.21
2023-04-15T03:13:31.977Z,5.25
2023-04-15T03:14:31.953Z,5.25
2023-04-15T03:15:31.934Z,5.26
2023-04-15T03:16:31.892Z,5.26
2023-04-15T03:17:31.931Z,5.21
2023-04-15T03:18:31.888Z,5.21
2023-04-15T03:19:31.916Z,5.18
2023-04-15T03:20:31.944Z,5.17
2023-04-15T03:21:31.848Z,5.14
2023-04-15T03:22:31.839Z,5.12
2023-04-15T03:23:31.833Z,5.15
2023-04-15T03:24:31.831Z,5.14
2023-04-15T03:25:31.859Z,5.12
2023-04-15T03:26:31.814Z,5.11
2023-04-15T03:27:31.822Z,5.11
2023-04-15T03:28:31.800Z,5.12
2023-04-15T03:29:31.789Z,5.14
2023-04-15T03:30:31.777Z,5.12
2023-04-15T03:31:31.830Z,5.15
2023-04-15T03:32:31.794Z,5.15
2023-04-15T03:33:31.748Z,5.17
2023-04-15T03:34:31.716Z,5.17
2023-04-15T03:35:31.727Z,5.20
2023-04-15T03:36:31.716Z,5.17
2023-04-15T03:37:31.723Z,5.18
2023-04-15T03:38:31.687Z,5.20
2023-04-15T03:39:31.678Z,5.21
2023-04-15T03:40:31.672Z,5.21
2023-04-15T03:41:31.671Z,5.21
2023-04-15T03:42:31.681Z,5.21
2023-04-15T03:43:31.630Z,5.23
2023-04-15T03:44:31.613Z,5.25
2023-04-15T03:45:31.620Z,5.23
2023-04-15T03:46:31.637Z,5.25
2023-04-15T03:47:31.585Z,5.25
2023-04-15T03:48:31.610Z,5.25
2023-04-15T03:49:31.589Z,5.26
2023-04-15T03:50:31.579Z,5.25
2023-04-15T03:51:31.578Z,5.26
2023-04-15T03:52:31.570Z,5.25
2023-04-15T03:53:31.583Z,5.26
2023-04-15T03:54:31.533Z,5.23
2023-04-15T03:55:31.523Z,5.25
2023-04-15T03:56:31.507Z,5.25
2023-04-15T03:57:31.537Z,5.26
2023-04-15T03:58:31.482Z,5.28
2023-04-15T03:59:31.504Z,5.28
2023-04-15T04:00:31.466Z,5.28
2023-04-15T04:01:31.489Z,5.29
2023-04-15T04:02:31.595Z,5.29
2023-04-15T04:03:31.491Z,5.29
2023-04-15T04:04:31.580Z,5.28
2023-04-15T04:05:31.431Z,5.28
2023-04-15T04:06:31.416Z,5.28
2023-04-15T04:07:31.394Z,5.29
2023-04-15T04:08:31.379Z,5.28
2023-04-15T04:09:31.384Z,5.29
2023-04-15T04:10:31.415Z,5.28
2023-04-15T04:11:31.353Z,5.29
2023-04-15T04:12:31.351Z,5.26
2023-04-15T04:13:31.331Z,5.26
2023-04-15T04:14:31.316Z,5.28
2023-04-15T04:15:31.380Z,5.28
2023-04-15T04:16:31.346Z,5.26
2023-04-15T04:17:31.325Z,5.25
2023-04-15T04:18:31.271Z,5.26
2023-04-15T04:19:31.286Z,5.26
2023-04-15T04:20:31.264Z,5.26
2023-04-15T04:21:31.256Z,5.25
2023-04-15T04:22:31.638Z,5.26
2023-04-15T04:23:31.246Z,5.25
2023-04-15T04:24:31.242Z,5.28
2023-04-15T04:25:31.219Z,5.28
2023-04-15T04:26:31.224Z,5.26
2023-04-15T04:27:31.179Z,5.26
2023-04-15T04:28:31.234Z,5.29
2023-04-15T04:29:31.169Z,5.30
2023-04-15T04:30:31.175Z,5.32
2023-04-15T04:31:31.175Z,5.33
2023-04-15T04:32:31.155Z,5.33
2023-04-15T04:33:31.146Z,5.32
2023-04-15T04:34:31.162Z,5.33
2023-04-15T04:35:31.119Z,5.33
2023-04-15T04:36:31.109Z,5.35
2023-04-15T04:37:31.085Z,5.36
2023-04-15T04:38:31.100Z,5.38
2023-04-15T04:39:31.114Z,5.35
2023-04-15T04:40:31.109Z,5.38
2023-04-15T04:41:31.048Z,5.36
2023-04-15T04:42:31.052Z,5.39
2023-04-15T04:43:31.014Z,5.41
2023-04-15T04:44:31.046Z,5.43
2023-04-15T04:45:31.038Z,5.43
2023-04-15T04:46:31.011Z,5.44
2023-04-15T04:47:30.986Z,5.46
2023-04-15T04:48:30.986Z,5.47
2023-04-15T04:49:31.005Z,5.47
2023-04-15T04:50:30.962Z,5.47
2023-04-15T04:51:30.969Z,5.50
2023-04-15T04:52:30.951Z,5.50
2023-04-15T04:53:30.939Z,5.50
2023-04-15T04:54:30.927Z,5.50
2023-04-15T04:55:30.960Z,5.50
2023-04-15T04:56:30.902Z,5.51
2023-04-15T04:57:30.894Z,5.51
2023-04-15T04:58:30.886Z,5.50
2023-04-15T04:59:30.855Z,5.53
2023-04-15T05:00:30.867Z,5.51
2023-04-15T05:01:30.867Z,5.53
2023-04-15T05:02:30.898Z,5.51
2023-04-15T05:03:30.947Z,5.50
2023-04-15T05:04:30.853Z,5.54
2023-04-15T05:05:30.794Z,5.53
2023-04-15T05:06:30.825Z,5.56
2023-04-15T05:07:30.807Z,5.54
2023-04-15T05:08:30.794Z,5.56
2023-04-15T05:09:30.776Z,5.56
2023-04-15T05:10:30.777Z,5.56
2023-04-15T05:11:30.777Z,5.61
2023-04-15T05:12:30.747Z,5.61
2023-04-15T05:13:30.732Z,5.61
2023-04-15T05:14:30.712Z,5.64
2023-04-15T05:15:30.750Z,5.64
2023-04-15T05:16:30.723Z,5.62
2023-04-15T05:17:30.790Z,5.65
2023-04-15T05:18:30.691Z,5.64
2023-04-15T05:19:30.677Z,5.65
2023-04-15T05:20:30.670Z,5.64
2023-04-15T05:21:30.646Z,5.66
2023-04-15T05:22:30.656Z,5.66
2023-04-15T05:23:30.643Z,5.69
2023-04-15T05:24:30.642Z,5.69
2023-04-15T05:25:30.598Z,5.69
2023-04-15T05:26:30.601Z,5.72
2023-04-15T05:27:30.584Z,5.75
2023-04-15T05:28:30.633Z,5.79
2023-04-15T05:29:30.584Z,5.80
2023-04-15T05:30:30.556Z,5.83
2023-04-15T05:31:30.620Z,5.86
2023-04-15T05:32:30.580Z,5.87
2023-04-15T05:33:30.542Z,5.90
2023-04-15T05:34:30.547Z,5.91
2023-04-15T05:35:30.511Z,5.93
2023-04-15T05:36:30.503Z,5.93
2023-04-15T05:37:30.495Z,5.97
2023-04-15T05:38:30.484Z,5.97
2023-04-15T05:39:30.513Z,5.98
2023-04-15T05:40:30.465Z,5.97
2023-04-15T05:41:30.608Z,5.93
2023-04-15T05:42:30.466Z,5.91
2023-04-15T05:43:30.461Z,5.87
2023-04-15T05:44:30.429Z,5.86
2023-04-15T05:45:30.409Z,5.86
2023-04-15T05:46:30.420Z,5.80
2023-04-15T05:47:30.451Z,5.79
2023-04-15T05:48:30.384Z,5.76
2023-04-15T05:49:30.416Z,5.75
2023-04-15T05:50:30.378Z,5.73
2023-04-15T05:51:30.364Z,5.75
2023-04-15T05:52:30.342Z,5.72
2023-04-15T05:53:30.336Z,5.71
2023-04-15T05:54:30.349Z,5.71
2023-04-15T05:55:30.310Z,5.73
2023-04-15T05:56:30.284Z,5.73
2023-04-15T05:57:30.295Z,5.72
2023-04-15T05:58:30.283Z,5.71
2023-04-15T05:59:30.294Z,5.69
2023-04-15T06:00:30.291Z,5.71
2023-04-15T06:01:30.269Z,5.72
2023-04-15T06:02:30.263Z,5.75
2023-04-15T06:03:30.323Z,5.76
2023-04-15T06:04:30.390Z,5.80
2023-04-15T06:05:30.244Z,5.84
2023-04-15T06:06:30.214Z,5.89
2023-04-15T06:07:30.200Z,5.91
2023-04-15T06:08:30.193Z,5.94
2023-04-15T06:09:30.187Z,5.99
2023-04-15T06:10:30.170Z,5.98
2023-04-15T06:11:30.157Z,6.02
2023-04-15T06:12:30.127Z,6.02
2023-04-15T06:13:30.118Z,6.05
2023-04-15T06:14:30.103Z,6.05
2023-04-15T06:15:30.109Z,6.05
2023-04-15T06:16:30.149Z,6.07
2023-04-15T06:17:30.124Z,6.07
2023-04-15T06:18:30.083Z,6.09
2023-04-15T06:19:30.062Z,6.12
2023-04-15T06:20:30.064Z,6.14
2023-04-15T06:21:30.080Z,6.17
2023-04-15T06:22:30.034Z,6.22
2023-04-15T06:23:30.032Z,6.26
2023-04-15T06:24:30.016Z,6.30
2023-04-15T06:25:30.048Z,6.33
2023-04-15T06:26:29.991Z,6.35
2023-04-15T06:27:30.608Z,6.41
2023-04-15T06:28:29.976Z,6.41
2023-04-15T06:29:29.970Z,6.45
2023-04-15T06:30:29.973Z,6.46
2023-04-15T06:31:30.025Z,6.49
2023-04-15T06:32:29.979Z,6.51
2023-04-15T06:33:29.953Z,6.54
2023-04-15T06:34:29.916Z,6.56
2023-04-15T06:35:29.944Z,6.59
2023-04-15T06:36:29.894Z,6.62
2023-04-15T06:37:29.875Z,6.62
2023-04-15T06:38:29.892Z,6.64
2023-04-15T06:39:29.860Z,6.64
2023-04-15T06:40:29.841Z,6.66
2023-04-15T06:41:29.849Z,6.66
2023-04-15T06:42:29.832Z,6.67
2023-04-15T06:43:29.870Z,6.70
2023-04-15T06:44:30.787Z,6.69
2023-04-15T06:45:29.860Z,6.72
2023-04-15T06:46:29.866Z,6.70
2023-04-15T06:47:29.833Z,6.72
2023-04-15T06:48:29.783Z,6.75
2023-04-15T06:49:29.763Z,6.75
2023-04-15T06:50:29.754Z,6.75
2023-04-15T06:51:29.755Z,6.77
2023-04-15T06:52:29.769Z,6.78
2023-04-15T06:53:29.724Z,6.79
2023-04-15T06:54:29.701Z,6.81
2023-04-15T06:55:29.705Z,6.82
2023-04-15T06:56:29.671Z,6.84
2023-04-15T06:57:29.709Z,6.82
2023-04-15T06:58:29.686Z,6.85
2023-04-15T06:59:29.666Z,6.88
2023-04-15T07:00:29.668Z,6.88
2023-04-15T07:01:29.805Z,6.89
2023-04-15T07:02:29.783Z,6.93
2023-04-15T07:03:31.448Z,6.96
2023-04-15T07:04:29.700Z,6.96
2023-04-15T07:05:29.588Z,6.97
2023-04-15T07:06:29.601Z,6.99
2023-04-15T07:07:29.603Z,7.00
2023-04-15T07:08:29.561Z,7.03
2023-04-15T07:09:29.609Z,7.03
2023-04-15T07:10:29.537Z,7.06
2023-04-15T07:11:29.551Z,7.06
2023-04-15T07:12:29.533Z,7.07
2023-04-15T07:13:29.546Z,7.11
2023-04-15T07:14:29.531Z,7.13
2023-04-15T07:15:29.498Z,7.11
2023-04-15T07:16:30.039Z,7.13
2023-04-15T07:17:29.532Z,7.15
2023-04-15T07:18:29.468Z,7.14
2023-04-15T07:19:29.504Z,7.18
2023-04-15T07:20:29.459Z,7.18
2023-04-15T07:21:29.445Z,7.20
2023-04-15T07:22:29.456Z,7.20
2023-04-15T07:23:29.502Z,7.21
2023-04-15T07:24:29.400Z,7.24
2023-04-15T07:25:29.406Z,7.25
2023-04-15T07:26:29.375Z,7.25
2023-04-15T07:27:29.383Z,7.29
2023-04-15T07:28:29.366Z,7.31
2023-04-15T07:29:29.370Z,7.31
2023-04-15T07:30:29.343Z,7.33
2023-04-15T07:31:29.458Z,7.35
2023-04-15T07:32:29.374Z,7.39
2023-04-15T07:33:29.328Z,7.40
2023-04-15T07:34:30.811Z,7.40
2023-04-15T07:35:29.296Z,7.43
2023-04-15T07:36:29.293Z,7.45
2023-04-15T07:37:29.272Z,7.48
2023-04-15T07:38:29.270Z,7.48
2023-04-15T07:39:29.264Z,7.50
2023-04-15T07:40:29.300Z,7.53
2023-04-15T07:41:29.249Z,7.54
2023-04-15T07:42:29.262Z,7.56
2023-04-15T07:43:29.263Z,7.60
2023-04-15T07:44:29.199Z,7.60
2023-04-15T07:45:29.246Z,7.61
2023-04-15T07:46:29.220Z,7.63
2023-04-15T07:47:29.201Z,7.63
2023-04-15T07:48:29.173Z,7.69
2023-04-15T07:49:29.154Z,7.69
2023-04-15T07:50:29.158Z,7.70
2023-04-15T07:51:29.170Z,7.72
2023-04-15T07:52:29.136Z,7.73
2023-04-15T07:53:29.118Z,7.73
2023-04-15T07:54:29.103Z,7.73
2023-04-15T07:55:29.110Z,7.75
2023-04-15T07:56:29.125Z,7.75
2023-04-15T07:57:29.087Z,7.75
2023-04-15T07:58:29.079Z,7.76
2023-04-15T07:59:29.065Z,7.77
2023-04-15T08:00:29.060Z,7.79
2023-04-15T08:01:29.046Z,7.79
2023-04-15T08:02:29.193Z,7.82
2023-04-15T08:03:29.153Z,7.82
2023-04-15T08:04:29.155Z,7.82
2023-04-15T08:05:29.009Z,7.83
2023-04-15T08:06:28.980Z,7.85
2023-04-15T08:07:28.975Z,7.87
2023-04-15T08:08:28.982Z,7.87
2023-04-15T08:09:28.959Z,7.87
2023-04-15T08:10:28.961Z,7.87
2023-04-15T08:11:28.957Z,7.87
2023-04-15T08:12:28.927Z,7.88
2023-04-15T08:13:28.951Z,7.87
2023-04-15T08:14:28.925Z,7.87
2023-04-15T08:15:28.911Z,7.88
2023-04-15T08:16:28.919Z,7.90
2023-04-15T08:17:28.889Z,7.88
2023-04-15T08:18:28.863Z,7.87
2023-04-15T08:19:28.909Z,7.87
2023-04-15T08:20:28.846Z,7.85
2023-04-15T08:21:28.837Z,7.85
2023-04-15T08:22:28.830Z,7.85
2023-04-15T08:23:28.830Z,7.85
2023-04-15T08:24:28.834Z,7.82
2023-04-15T08:25:28.807Z,7.79
2023-04-15T08:26:28.817Z,7.76
2023-04-15T08:27:28.775Z,7.73
2023-04-15T08:28:28.778Z,7.70
2023-04-15T08:29:28.775Z,7.69
2023-04-15T08:30:28.751Z,7.67
2023-04-15T08:31:28.810Z,7.67
2023-04-15T08:32:28.732Z,7.63
2023-04-15T08:33:28.741Z,7.61
2023-04-15T08:34:28.711Z,7.60
2023-04-15T08:35:28.709Z,7.56
2023-04-15T08:36:28.713Z,7.51
2023-04-15T08:37:28.685Z,7.48
2023-04-15T08:38:28.680Z,7.45
2023-04-15T08:39:28.656Z,7.43
2023-04-15T08:40:28.647Z,7.43
2023-04-15T08:41:28.648Z,7.42
2023-04-15T08:42:28.660Z,7.40
2023-04-15T08:43:28.618Z,7.38
2023-04-15T08:44:28.602Z,7.38
2023-04-15T08:45:28.595Z,7.35
2023-04-15T08:46:28.609Z,7.35
2023-04-15T08:47:28.644Z,7.32
2023-04-15T08:48:28.553Z,7.29
2023-04-15T08:49:28.561Z,7.28
2023-04-15T08:50:28.545Z,7.28
2023-04-15T08:51:28.550Z,7.31
2023-04-15T08:52:28.572Z,7.28
2023-04-15T08:53:28.521Z,7.29
2023-04-15T08:54:28.505Z,7.32
2023-04-15T08:55:28.487Z,7.35
2023-04-15T08:56:28.489Z,7.36
2023-04-15T08:57:28.469Z,7.38
2023-04-15T08:58:28.470Z,7.42
2023-04-15T08:59:28.465Z,7.45
2023-04-15T09:00:28.457Z,7.47
2023-04-15T09:01:28.478Z,7.50
2023-04-15T09:02:28.506Z,7.51
2023-04-15T09:03:28.544Z,7.54
2023-04-15T09:04:28.403Z,7.57
2023-04-15T09:05:28.395Z,7.60
2023-04-15T09:06:28.381Z,7.67
2023-04-15T09:07:28.366Z,7.69
2023-04-15T09:08:28.355Z,7.70
2023-04-15T09:09:28.387Z,7.73
2023-04-15T09:10:28.340Z,7.72
2023-04-15T09:11:28.337Z,7.73
2023-04-15T09:12:28.330Z,7.75
2023-04-15T09:13:28.314Z,7.75
2023-04-15T09:14:28.305Z,7.77
2023-04-15T09:15:28.318Z,7.79
2023-04-15T09:16:28.327Z,7.83
2023-04-15T09:17:28.304Z,7.87
2023-04-15T09:18:28.280Z,7.90
2023-04-15T09:19:28.263Z,7.90
2023-04-15T09:20:28.276Z,7.93
2023-04-15T09:21:28.237Z,7.95
2023-04-15T09:22:28.233Z,7.95
2023-04-15T09:23:28.204Z,7.98
2023-04-15T09:24:28.186Z,8.03
2023-04-15T09:25:28.202Z,8.08
2023-04-15T09:26:28.196Z,8.06
2023-04-15T09:27:28.191Z,8.08
2023-04-15T09:28:28.167Z,8.05
2023-04-15T09:29:28.187Z,8.09
2023-04-15T09:30:28.144Z,8.12
2023-04-15T09:31:28.233Z,8.15
2023-04-15T09:32:28.125Z,8.18
2023-04-15T09:33:28.106Z,8.19
2023-04-15T09:34:28.086Z,8.19
2023-04-15T09:35:28.140Z,8.19
2023-04-15T09:36:28.084Z,8.19
2023-04-15T09:37:32.304Z,8.19
2023-04-15T09:38:28.051Z,8.19
2023-04-15T09:39:28.057Z,8.20
2023-04-15T09:40:28.050Z,8.20
2023-04-15T09:41:28.029Z,8.19
2023-04-15T09:42:28.060Z,8.19
2023-04-15T09:43:28.008Z,8.19
2023-04-15T09:44:28.031Z,8.20
2023-04-15T09:45:29.693Z,8.19
2023-04-15T09:46:28.014Z,8.18
2023-04-15T09:47:28.019Z,8.18
2023-04-15T09:48:27.948Z,8.19
2023-04-15T09:49:27.965Z,8.20
2023-04-15T09:50:27.954Z,8.19
2023-04-15T09:51:27.910Z,8.20
2023-04-15T09:52:27.931Z,8.18
2023-04-15T09:53:29.762Z,8.16
2023-04-15T09:54:27.892Z,8.15
2023-04-15T09:55:27.950Z,8.13
2023-04-15T09:56:27.878Z,8.13
2023-04-15T09:57:27.880Z,8.13
2023-04-15T09:58:27.867Z,8.09
2023-04-15T09:59:27.841Z,8.06
2023-04-15T10:00:27.828Z,8.05
2023-04-15T10:01:27.924Z,8.08
2023-04-15T10:02:27.856Z,8.06
2023-04-15T10:03:27.939Z,8.01
2023-04-15T10:04:27.899Z,7.97
2023-04-15T10:05:28.676Z,7.97
2023-04-15T10:06:27.811Z,7.94
2023-04-15T10:07:27.767Z,7.91
2023-04-15T10:08:27.774Z,7.91
2023-04-15T10:09:27.756Z,7.91
2023-04-15T10:10:27.788Z,7.93
2023-04-15T10:11:29.166Z,7.93
2023-04-15T10:12:27.718Z,7.93
2023-04-15T10:13:27.700Z,7.93
2023-04-15T10:14:27.702Z,7.91
2023-04-15T10:15:27.684Z,7.93
2023-04-15T10:16:27.876Z,7.91
2023-04-15T10:17:28.460Z,7.90
2023-04-15T10:18:27.656Z,7.88
2023-04-15T10:19:27.662Z,7.90
2023-04-15T10:20:27.655Z,7.91
2023-04-15T10:21:27.636Z,7.88
2023-04-15T10:22:27.671Z,7.90
2023-04-15T10:23:27.619Z,7.88
2023-04-15T10:24:27.611Z,7.91
2023-04-15T10:25:27.615Z,7.93
2023-04-15T10:26:27.585Z,7.91
2023-04-15T10:27:27.558Z,7.90
2023-04-15T10:28:27.572Z,7.90
2023-04-15T10:29:27.532Z,7.88
2023-04-15T10:30:27.538Z,7.88
2023-04-15T10:31:27.590Z,7.85
2023-04-15T10:32:27.549Z,7.82
2023-04-15T10:33:27.507Z,7.80
2023-04-15T10:34:27.506Z,7.80
2023-04-15T10:35:27.487Z,7.80
2023-04-15T10:36:27.481Z,7.80
2023-04-15T10:37:27.471Z,7.80
2023-04-15T10:38:27.455Z,7.82
2023-04-15T10:39:27.436Z,7.80
2023-04-15T10:40:27.467Z,7.82
2023-04-15T10:41:27.414Z,7.83
2023-04-15T10:42:27.462Z,7.83
2023-04-15T10:43:27.415Z,7.85
2023-04-15T10:44:27.398Z,7.85
2023-04-15T10:45:27.395Z,7.88
2023-04-15T10:46:27.472Z,7.90
2023-04-15T10:47:27.387Z,7.93
2023-04-15T10:48:27.388Z,7.93
2023-04-15T10:49:27.339Z,7.93
2023-04-15T10:50:27.362Z,7.93
2023-04-15T10:51:27.310Z,7.94
2023-04-15T10:52:27.310Z,7.97
2023-04-15T10:53:27.299Z,7.98
2023-04-15T10:54:27.287Z,8.03
2023-04-15T10:55:27.307Z,8.05
2023-04-15T10:56:27.271Z,8.08
2023-04-15T10:57:27.257Z,8.09
2023-04-15T10:58:27.269Z,8.09
2023-04-15T10:59:27.252Z,8.09
2023-04-15T11:00:27.235Z,8.09
2023-04-15T11:01:27.268Z,8.09
2023-04-15T11:02:27.392Z,8.12
2023-04-15T11:03:27.377Z,8.15
2023-04-15T11:04:27.365Z,8.13
2023-04-15T11:05:27.196Z,8.15
2023-04-15T11:06:27.201Z,8.16
2023-04-15T11:07:27.179Z,8.19
2023-04-15T11:08:27.158Z,8.23
2023-04-15T11:09:27.155Z,8.23
2023-04-15T11:10:27.130Z,8.20
2023-04-15T11:11:27.129Z,8.20
2023-04-15T11:12:27.101Z,8.20
2023-04-15T11:13:27.160Z,8.19
2023-04-15T11:14:27.077Z,8.18
2023-04-15T11:15:27.076Z,8.19
2023-04-15T11:16:27.108Z,8.20
2023-04-15T11:17:27.152Z,8.23
2023-04-15T11:18:27.081Z,8.26
2023-04-15T11:19:27.036Z,8.26
2023-04-15T11:20:27.096Z,8.26
2023-04-15T11:21:27.021Z,8.28
2023-04-15T11:22:27.008Z,8.26
2023-04-15T11:23:27.009Z,8.28
2023-04-15T11:24:27.062Z,8.30
2023-04-15T11:25:27.013Z,8.31
2023-04-15T11:26:26.953Z,8.33
2023-04-15T11:27:26.953Z,8.36
2023-04-15T11:28:26.928Z,8.38
2023-04-15T11:29:26.969Z,8.41
2023-04-15T11:30:26.924Z,8.41
2023-04-15T11:31:26.937Z,8.41
2023-04-15T11:32:26.949Z,8.38
2023-04-15T11:33:26.902Z,8.37
2023-04-15T11:34:26.925Z,8.42
2023-04-15T11:35:26.878Z,8.44
2023-04-15T11:36:26.879Z,8.42
2023-04-15T11:37:26.851Z,8.42
2023-04-15T11:38:26.847Z,8.42
2023-04-15T11:39:26.838Z,8.44
2023-04-15T11:40:27.131Z,8.45
2023-04-15T11:41:26.865Z,8.48
2023-04-15T11:42:31.447Z,8.46
2023-04-15T11:43:26.809Z,8.46
2023-04-15T11:44:26.788Z,8.49
2023-04-15T11:45:26.829Z,8.46
2023-04-15T11:46:26.816Z,8.49
2023-04-15T11:47:26.783Z,8.48
2023-04-15T11:48:26.768Z,8.46
2023-04-15T11:49:26.745Z,8.44
2023-04-15T11:50:26.741Z,8.46
2023-04-15T11:51:26.720Z,8.46
2023-04-15T11:52:26.735Z,8.49
2023-04-15T11:53:26.698Z,8.51
2023-04-15T11:54:26.698Z,8.49
2023-04-15T11:55:26.675Z,8.48
2023-04-15T11:56:26.653Z,8.49
2023-04-15T11:57:26.678Z,8.51
2023-04-15T11:58:26.632Z,8.51
2023-04-15T11:59:35.666Z,8.52
2023-04-15T12:00:26.615Z,8.53
2023-04-15T12:01:26.612Z,8.53
2023-04-15T12:02:26.787Z,8.52
2023-04-15T12:03:26.755Z,8.52
2023-04-15T12:04:26.802Z,8.53
2023-04-15T12:05:26.593Z,8.55
2023-04-15T12:06:26.559Z,8.55
2023-04-15T12:07:26.545Z,8.58
2023-04-15T12:08:26.523Z,8.58
2023-04-15T12:09:26.519Z,8.60
2023-04-15T12:10:26.515Z,8.61
2023-04-15T12:11:26.537Z,8.61
2023-04-15T12:12:26.503Z,8.64
2023-04-15T12:13:26.496Z,8.66
2023-04-15T12:14:26.519Z,8.70
2023-04-15T12:15:26.462Z,8.70
2023-04-15T12:16:26.462Z,8.71
2023-04-15T12:17:26.491Z,8.74
2023-04-15T12:18:26.445Z,8.74
2023-04-15T12:19:26.432Z,8.78
2023-04-15T12:20:26.421Z,8.82
2023-04-15T12:21:26.405Z,8.87
2023-04-15T12:22:26.457Z,8.91
2023-04-15T12:23:26.381Z,8.92
2023-04-15T12:24:26.367Z,8.97
2023-04-15T12:25:26.375Z,8.95
2023-04-15T12:26:26.357Z,8.92
2023-04-15T12:27:27.654Z,8.94
2023-04-15T12:28:26.341Z,8.94
2023-04-15T12:29:26.335Z,8.94
2023-04-15T12:30:26.339Z,8.97
2023-04-15T12:31:26.387Z,8.99
2023-04-15T12:32:26.326Z,8.97
2023-04-15T12:33:26.285Z,8.92
2023-04-15T12:34:26.292Z,8.95
2023-04-15T12:35:26.254Z,8.91
2023-04-15T12:36:26.288Z,8.89
2023-04-15T12:37:26.243Z,8.89
2023-04-15T12:38:26.231Z,8.91
2023-04-15T12:39:27.174Z,8.92
2023-04-15T12:40:26.231Z,8.91
2023-04-15T12:41:26.225Z,8.92
2023-04-15T12:42:26.235Z,8.92
2023-04-15T12:43:26.183Z,8.95
2023-04-15T12:44:26.207Z,8.99
2023-04-15T12:45:26.876Z,8.99
2023-04-15T12:46:26.181Z,8.97
2023-04-15T12:47:26.145Z,9.03
2023-04-15T12:48:26.144Z,9.02
2023-04-15T12:49:26.144Z,9.02
2023-04-15T12:50:26.122Z,9.03
2023-04-15T12:51:26.112Z,9.08
2023-04-15T12:52:26.110Z,9.08
2023-04-15T12:53:26.090Z,9.11
2023-04-15T12:54:26.086Z,9.11
2023-04-15T12:55:26.105Z,9.11
2023-04-15T12:56:26.061Z,9.16
2023-04-15T12:57:26.058Z,9.16
2023-04-15T12:58:26.061Z,9.22
2023-04-15T12:59:26.045Z,9.25
2023-04-15T13:00:26.015Z,9.26
2023-04-15T13:01:26.082Z,9.31
2023-04-15T13:02:26.096Z,9.31
2023-04-15T13:03:26.204Z,9.32
2023-04-15T13:04:26.018Z,9.31
2023-04-15T13:05:25.965Z,9.28
2023-04-15T13:06:25.985Z,9.31
2023-04-15T13:07:25.943Z,9.26
2023-04-15T13:08:25.953Z,9.21
2023-04-15T13:09:25.938Z,9.14
2023-04-15T13:10:25.918Z,9.06
2023-04-15T13:11:25.912Z,9.03
2023-04-15T13:12:25.938Z,8.99
2023-04-15T13:13:25.881Z,8.97
2023-04-15T13:14:25.868Z,8.97
2023-04-15T13:15:25.869Z,8.97
2023-04-15T13:16:25.866Z,8.99
2023-04-15T13:17:25.888Z,8.99
2023-04-15T13:18:25.872Z,8.95